Time;durP1;ratioP1;P1;durP2;ratioP2;P2;SDS_P1;SDS_P2;PMS_P1;PMS_P2;Temp;Humidity;BMP_temperature;BMP_pressure;BME280_temperature;BME280_humidity;BME280_pressure;Samples;Min_cycle;Max_cycle;Signal;HPM_P1;HPM_P2
2022/03/21 00:00:49;;;;;;;58.23;40.57;;;;;;;;;;5303490;28;20032;-68
2022/03/21 00:03:22;;;;;;;56.43;41.17;;;;;;;;;;5303968;28;20024;-68
2022/03/21 00:05:53;;;;;;;59.07;40.63;;;;;;;;;;5303603;28;20028;-68
2022/03/21 00:08:24;;;;;;;59.70;41.17;;;;;;;;;;5303273;28;20027;-67
2022/03/21 00:10:56;;;;;;;53.50;39.00;;;;;;;;;;5303401;28;20032;-67
2022/03/21 00:13:28;;;;;;;55.10;38.40;;;;;;;;;;5303582;28;20036;-68
2022/03/21 00:15:59;;;;;;;55.77;39.33;;;;;;;;;;5302503;28;20058;-67
2022/03/21 00:18:31;;;;;;;55.83;38.77;;;;;;;;;;5303360;28;20542;-68
2022/03/21 00:21:03;;;;;;;55.33;38.30;;;;;;;;;;5303374;28;20012;-68
2022/03/21 00:23:35;;;;;;;55.13;38.40;;;;;;;;;;5302677;28;20081;-67
2022/03/21 00:26:06;;;;;;;53.63;38.33;;;;;;;;;;5303102;28;20409;-67
2022/03/21 00:28:37;;;;;;;53.37;37.90;;;;;;;;;;5303347;28;20012;-67
2022/03/21 00:31:09;;;;;;;61.27;40.30;;;;;;;;;;5302682;28;20016;-67
2022/03/21 00:33:40;;;;;;;51.70;36.93;;;;;;;;;;5302995;28;20437;-67
2022/03/21 00:36:11;;;;;;;56.27;37.70;;;;;;;;;;5302336;28;20462;-68
2022/03/21 00:38:43;;;;;;;56.27;39.73;;;;;;;;;;5302891;28;20115;-68
2022/03/21 00:41:14;;;;;;;53.73;38.83;;;;;;;;;;5303112;28;20016;-66
2022/03/21 00:43:46;;;;;;;53.80;37.64;;;;;;;;;;5301779;28;20437;-66
2022/03/21 00:46:17;;;;;;;53.37;38.13;;;;;;;;;;5302737;28;20482;-66
2022/03/21 00:48:48;;;;;;;54.47;38.70;;;;;;;;;;5302448;28;20372;-66
2022/03/21 00:51:19;;;;;;;55.03;39.17;;;;;;;;;;5301799;28;20016;-66
2022/03/21 00:53:50;;;;;;;53.72;38.12;;;;;;;;;;5302308;28;20064;-66
2022/03/21 00:56:21;;;;;;;57.00;40.45;;;;;;;;;;5302902;28;20031;-67
2022/03/21 00:58:52;;;;;;;56.22;40.28;;;;;;;;;;5301469;28;20020;-67
2022/03/21 01:01:24;;;;;;;54.63;38.95;;;;;;;;;;5302782;28;20098;-67
2022/03/21 01:03:55;;;;;;;54.13;38.72;;;;;;;;;;5301865;28;20082;-67
2022/03/21 01:06:26;;;;;;;54.27;37.83;;;;;;;;;;5302169;28;20482;-67
2022/03/21 01:08:57;;;;;;;57.72;39.22;;;;;;;;;;5301811;28;20422;-67
2022/03/21 01:11:28;;;;;;;58.93;39.27;;;;;;;;;;5301827;28;20475;-67
2022/03/21 01:14:00;;;;;;;54.77;39.97;;;;;;;;;;5301787;28;20051;-68
2022/03/21 01:16:31;;;;;;;54.63;39.43;;;;;;;;;;5302427;28;20043;-68
2022/03/21 01:19:02;;;;;;;53.26;38.60;;;;;;;;;;5301752;28;20020;-68
2022/03/21 01:21:34;;;;;;;53.77;39.30;;;;;;;;;;5302206;28;20036;-68
2022/03/21 01:24:05;;;;;;;57.03;39.67;;;;;;;;;;5302148;28;20015;-68
2022/03/21 01:26:36;;;;;;;56.53;39.87;;;;;;;;;;5301307;28;20048;-68
2022/03/21 01:29:07;;;;;;;53.65;39.60;;;;;;;;;;5302076;28;20069;-68
2022/03/21 01:31:38;;;;;;;58.64;38.62;;;;;;;;;;5302412;28;20401;-67
2022/03/21 01:34:09;;;;;;;55.44;38.18;;;;;;;;;;5301238;28;20340;-68
2022/03/21 01:36:41;;;;;;;50.88;37.06;;;;;;;;;;5302142;28;20481;-68
2022/03/21 01:39:12;;;;;;;52.90;37.70;;;;;;;;;;5301277;28;20023;-67
2022/03/21 01:41:43;;;;;;;54.78;39.08;;;;;;;;;;5301997;28;20107;-67
2022/03/21 01:44:14;;;;;;;56.80;38.70;;;;;;;;;;5302157;28;20012;-68
2022/03/21 01:46:45;;;;;;;54.07;38.43;;;;;;;;;;5301152;28;20024;-68
2022/03/21 01:49:17;;;;;;;55.83;38.93;;;;;;;;;;5302207;28;20031;-67
2022/03/21 01:51:48;;;;;;;57.20;42.13;;;;;;;;;;5301713;28;20036;-67
2022/03/21 01:57:09;;;;;;;61.00;40.03;;;;;;;;;;5303940;28;20386;-67
2022/03/21 01:59:41;;;;;;;56.73;40.60;;;;;;;;;;5305996;28;20020;-67
2022/03/21 02:02:12;;;;;;;55.17;39.33;;;;;;;;;;5305432;28;20016;-67
2022/03/21 02:04:43;;;;;;;55.50;39.43;;;;;;;;;;5306270;28;20063;-68
2022/03/21 02:07:14;;;;;;;56.92;39.60;;;;;;;;;;5305565;28;20085;-67
2022/03/21 02:09:46;;;;;;;57.83;39.10;;;;;;;;;;5305555;28;20371;-68
2022/03/21 02:12:17;;;;;;;55.30;39.03;;;;;;;;;;5306318;28;20020;-67
2022/03/21 02:14:48;;;;;;;55.35;39.47;;;;;;;;;;5304429;28;20122;-66
2022/03/21 02:17:21;;;;;;;54.10;39.43;;;;;;;;;;5306397;28;20027;-68
2022/03/21 02:19:53;;;;;;;53.40;39.17;;;;;;;;;;5305547;28;20020;-68
2022/03/21 02:22:24;;;;;;;57.73;40.83;;;;;;;;;;5305296;28;20023;-68
2022/03/21 02:24:58;;;;;;;56.73;41.40;;;;;;;;;;5305153;28;20063;-67
2022/03/21 02:27:30;;;;;;;59.60;40.73;;;;;;;;;;5305888;28;20274;-68
2022/03/21 02:30:02;;;;;;;58.83;40.77;;;;;;;;;;5304790;28;20107;-68
2022/03/21 02:32:35;;;;;;;55.13;40.30;;;;;;;;;;5305678;28;20439;-68
2022/03/21 02:35:07;;;;;;;58.40;39.47;;;;;;;;;;5305571;28;20371;-68
2022/03/21 02:37:39;;;;;;;59.27;41.07;;;;;;;;;;5304907;28;20030;-68
2022/03/21 02:40:10;;;;;;;54.90;39.43;;;;;;;;;;5305356;28;20028;-68
2022/03/21 02:42:42;;;;;;;55.97;40.13;;;;;;;;;;5304605;28;20089;-68
2022/03/21 02:45:13;;;;;;;57.53;40.77;;;;;;;;;;5305389;28;20119;-68
2022/03/21 02:47:44;;;;;;;59.48;41.82;;;;;;;;;;5304846;28;20020;-67
2022/03/21 02:50:17;;;;;;;59.26;42.02;;;;;;;;;;5304939;28;20034;-67
2022/03/21 02:52:49;;;;;;;61.60;41.57;;;;;;;;;;5304625;28;20069;-67
2022/03/21 02:55:20;;;;;;;60.93;42.13;;;;;;;;;;5305549;28;20524;-68
2022/03/21 02:57:51;;;;;;;53.53;39.00;;;;;;;;;;5304035;28;20024;-67
2022/03/21 03:00:22;;;;;;;57.10;39.68;;;;;;;;;;5305295;28;20024;-67
2022/03/21 03:02:53;;;;;;;58.37;39.63;;;;;;;;;;5304810;28;20016;-67
2022/03/21 03:05:24;;;;;;;58.35;41.85;;;;;;;;;;5304485;28;20038;-67
2022/03/21 03:07:56;;;;;;;58.22;41.38;;;;;;;;;;5304525;28;20016;-67
2022/03/21 03:10:27;;;;;;;61.00;42.60;;;;;;;;;;5305180;28;20020;-66
2022/03/21 03:12:58;;;;;;;61.60;42.98;;;;;;;;;;5303425;28;20039;-68
2022/03/21 03:15:29;;;;;;;61.83;41.83;;;;;;;;;;5305029;28;20028;-68
2022/03/21 03:18:01;;;;;;;60.42;42.65;;;;;;;;;;5303779;28;20027;-68
2022/03/21 03:20:34;;;;;;;59.50;41.07;;;;;;;;;;5304583;28;20390;-67
2022/03/21 03:23:05;;;;;;;58.73;42.33;;;;;;;;;;5304573;28;20020;-67
2022/03/21 03:25:36;;;;;;;61.67;42.40;;;;;;;;;;5303856;28;20036;-68
2022/03/21 03:28:07;;;;;;;60.13;43.20;;;;;;;;;;5304640;28;20043;-68
2022/03/21 03:30:39;;;;;;;60.64;42.98;;;;;;;;;;5304673;28;20044;-67
2022/03/21 03:33:10;;;;;;;61.03;43.53;;;;;;;;;;5303610;28;20012;-68
2022/03/21 03:35:41;;;;;;;66.07;43.20;;;;;;;;;;5304350;28;20090;-68
2022/03/21 03:38:13;;;;;;;60.47;44.63;;;;;;;;;;5304537;28;20031;-68
2022/03/21 03:40:44;;;;;;;66.03;45.90;;;;;;;;;;5303318;28;20107;-68
2022/03/21 03:43:16;;;;;;;69.43;47.30;;;;;;;;;;5304747;28;20030;-68
2022/03/21 03:45:49;;;;;;;75.27;47.50;;;;;;;;;;5302965;28;20027;-68
2022/03/21 03:48:20;;;;;;;69.17;48.77;;;;;;;;;;5304289;28;20015;-67
2022/03/21 03:50:52;;;;;;;68.83;48.17;;;;;;;;;;5303855;28;20020;-68
2022/03/21 03:53:23;;;;;;;72.03;46.10;;;;;;;;;;5303647;28;20058;-68
2022/03/21 03:55:55;;;;;;;67.90;46.03;;;;;;;;;;5303691;28;20022;-68
2022/03/21 03:58:26;;;;;;;67.77;44.57;;;;;;;;;;5304291;28;20024;-68
2022/03/21 04:00:57;;;;;;;68.60;47.27;;;;;;;;;;5302635;28;20026;-68
2022/03/21 04:03:47;;;;;;;70.50;46.47;;;;;;;;;;5304210;28;20027;-67
2022/03/21 04:06:19;;;;;;;63.17;45.10;;;;;;;;;;5303945;28;20020;-67
2022/03/21 04:08:51;;;;;;;70.60;47.17;;;;;;;;;;5302616;28;20073;-68
2022/03/21 04:11:23;;;;;;;74.67;50.03;;;;;;;;;;5303688;28;20535;-67
2022/03/21 04:13:54;;;;;;;66.73;47.40;;;;;;;;;;5302244;28;20044;-67
2022/03/21 04:16:25;;;;;;;66.97;46.37;;;;;;;;;;5303681;28;20032;-67
2022/03/21 04:18:56;;;;;;;69.87;46.77;;;;;;;;;;5302871;28;20031;-67
2022/03/21 04:21:28;;;;;;;68.13;46.53;;;;;;;;;;5302658;28;20413;-67
2022/03/21 04:24:00;;;;;;;69.47;44.87;;;;;;;;;;5303102;28;20020;-67
2022/03/21 04:26:31;;;;;;;65.37;46.07;;;;;;;;;;5303464;28;20447;-68
2022/03/21 04:29:04;;;;;;;65.70;43.93;;;;;;;;;;5302645;28;20012;-67
2022/03/21 04:31:35;;;;;;;62.30;42.50;;;;;;;;;;5303190;28;20103;-67
2022/03/21 04:34:07;;;;;;;63.50;44.73;;;;;;;;;;5303017;28;20091;-67
2022/03/21 04:36:39;;;;;;;64.33;43.40;;;;;;;;;;5302320;28;20016;-68
2022/03/21 04:39:11;;;;;;;58.50;42.27;;;;;;;;;;5303217;28;20070;-68
2022/03/21 04:41:42;;;;;;;64.43;44.13;;;;;;;;;;5303028;28;20024;-68
2022/03/21 04:44:13;;;;;;;68.60;45.43;;;;;;;;;;5301991;28;20027;-67
2022/03/21 04:46:44;;;;;;;61.63;43.38;;;;;;;;;;5302501;28;20474;-67
2022/03/21 04:49:15;;;;;;;64.02;43.98;;;;;;;;;;5302511;28;20023;-67
2022/03/21 04:51:47;;;;;;;59.90;41.37;;;;;;;;;;5302615;28;20024;-67
2022/03/21 04:54:19;;;;;;;64.93;44.55;;;;;;;;;;5303134;28;20454;-67
2022/03/21 04:56:50;;;;;;;64.73;44.17;;;;;;;;;;5301777;28;20051;-68
2022/03/21 04:59:21;;;;;;;60.38;42.35;;;;;;;;;;5302895;28;20165;-68
2022/03/21 05:01:53;;;;;;;63.03;43.77;;;;;;;;;;5302373;28;20016;-67
2022/03/21 05:04:24;;;;;;;60.30;42.05;;;;;;;;;;5302164;28;20150;-67
2022/03/21 05:06:55;;;;;;;62.03;43.47;;;;;;;;;;5302387;28;20067;-67
2022/03/21 05:09:26;;;;;;;61.23;44.10;;;;;;;;;;5302656;28;20025;-68
2022/03/21 05:11:57;;;;;;;61.40;43.60;;;;;;;;;;5301528;28;20383;-67
2022/03/21 05:14:28;;;;;;;67.55;43.97;;;;;;;;;;5302445;28;20048;-67
2022/03/21 05:17:02;;;;;;;68.93;44.25;;;;;;;;;;5302149;28;20012;-67
2022/03/21 05:19:35;;;;;;;67.70;44.77;;;;;;;;;;5301545;28;20016;-69
2022/03/21 05:22:06;;;;;;;71.80;46.57;;;;;;;;;;5302290;28;20023;-67
2022/03/21 05:36:08;;;;;;;64.87;43.93;;;;;;;;;;5302166;28;20024;-68
2022/03/21 05:38:39;;;;;;;63.70;44.07;;;;;;;;;;5301031;28;20016;-68
2022/03/21 05:41:10;;;;;;;66.60;44.47;;;;;;;;;;5302225;28;20520;-68
2022/03/21 05:43:42;;;;;;;67.53;45.80;;;;;;;;;;5301981;28;20032;-68
2022/03/21 05:46:14;;;;;;;67.03;44.67;;;;;;;;;;5301301;28;20410;-68
2022/03/21 05:48:54;;;;;;;64.90;44.70;;;;;;;;;;5301646;28;20107;-69
2022/03/21 05:51:32;;;;;;;59.67;41.40;;;;;;;;;;5302480;28;20111;-69
2022/03/21 05:54:08;;;;;;;46.10;31.38;;;;;;;;;;5301265;28;20145;-67
2022/03/21 05:56:40;;;;;;;55.97;39.13;;;;;;;;;;5301807;28;20024;-67
2022/03/21 06:02:01;;;;;;;58.53;39.63;;;;;;;;;;5302149;28;20059;-68
2022/03/21 06:04:33;;;;;;;60.00;40.50;;;;;;;;;;5301906;28;20479;-68
2022/03/21 06:07:04;;;;;;;58.93;40.97;;;;;;;;;;5300962;28;20425;-69
2022/03/21 06:09:35;;;;;;;63.13;40.17;;;;;;;;;;5301694;28;20386;-68
2022/03/21 06:12:07;;;;;;;63.87;43.03;;;;;;;;;;5301777;28;20048;-67
2022/03/21 06:14:38;;;;;;;59.13;41.33;;;;;;;;;;5300599;28;20048;-68
2022/03/21 06:17:09;;;;;;;58.95;40.03;;;;;;;;;;5301866;28;20023;-68
2022/03/21 06:19:41;;;;;;;52.37;37.90;;;;;;;;;;5301779;28;20020;-68
2022/03/21 06:22:12;;;;;;;51.97;36.80;;;;;;;;;;5300785;28;20044;-67
2022/03/21 06:24:43;;;;;;;52.72;35.22;;;;;;;;;;5301364;28;20016;-68
2022/03/21 06:27:14;;;;;;;53.40;36.67;;;;;;;;;;5301627;28;20016;-68
2022/03/21 06:29:45;;;;;;;49.85;35.45;;;;;;;;;;5300354;28;20061;-68
2022/03/21 06:32:16;;;;;;;50.60;33.35;;;;;;;;;;5302030;28;20016;-68
2022/03/21 06:34:48;;;;;;;51.02;34.06;;;;;;;;;;5300924;28;20020;-68
2022/03/21 06:37:19;;;;;;;45.84;31.94;;;;;;;;;;5301750;28;20467;-68
2022/03/21 06:39:50;;;;;;;53.78;34.72;;;;;;;;;;5301514;28;20020;-69
2022/03/21 06:42:22;;;;;;;48.08;33.83;;;;;;;;;;5301209;28;20016;-69
2022/03/21 06:44:53;;;;;;;45.03;32.80;;;;;;;;;;5304836;28;20458;-68
2022/03/21 06:47:24;;;;;;;47.90;33.75;;;;;;;;;;5305429;28;20416;-68
2022/03/21 06:49:55;;;;;;;50.22;33.84;;;;;;;;;;5304440;28;20024;-68
2022/03/21 06:52:26;;;;;;;48.97;33.58;;;;;;;;;;5305515;28;20012;-68
2022/03/21 06:54:58;;;;;;;48.65;32.13;;;;;;;;;;5304985;28;20016;-67
2022/03/21 06:57:29;;;;;;;48.38;32.74;;;;;;;;;;5304769;28;20077;-68
2022/03/21 07:00:02;;;;;;;51.38;31.63;;;;;;;;;;5305314;28;20024;-69
2022/03/21 07:02:33;;;;;;;46.28;31.85;;;;;;;;;;5305111;28;20012;-68
2022/03/21 07:05:06;;;;;;;47.30;30.65;;;;;;;;;;5304284;28;20028;-68
2022/03/21 07:07:37;;;;;;;42.35;30.50;;;;;;;;;;5304905;28;20115;-68
2022/03/21 07:10:09;;;;;;;38.78;29.48;;;;;;;;;;5304174;28;20099;-69
2022/03/21 07:12:40;;;;;;;41.03;29.10;;;;;;;;;;5304757;28;20028;-68
2022/03/21 07:15:12;;;;;;;41.75;30.42;;;;;;;;;;5304952;28;20042;-68
2022/03/21 07:17:43;;;;;;;36.75;29.52;;;;;;;;;;5303990;28;20020;-69
2022/03/21 07:20:14;;;;;;;39.25;28.67;;;;;;;;;;5304935;28;20466;-69
2022/03/21 07:22:45;;;;;;;34.38;28.35;;;;;;;;;;5304521;28;20628;-68
2022/03/21 07:25:16;;;;;;;37.55;28.30;;;;;;;;;;5304130;28;20373;-68
2022/03/21 07:27:48;;;;;;;37.53;28.55;;;;;;;;;;5304205;28;20020;-68
2022/03/21 07:30:19;;;;;;;37.10;27.92;;;;;;;;;;5305009;28;20821;-68
2022/03/21 07:32:50;;;;;;;41.83;28.25;;;;;;;;;;5303556;28;20044;-68
2022/03/21 07:35:21;;;;;;;32.70;25.75;;;;;;;;;;5304489;28;20023;-69
2022/03/21 07:37:57;;;;;;;36.10;25.17;;;;;;;;;;5303288;28;20349;-68
2022/03/21 07:40:28;;;;;;;32.83;25.80;;;;;;;;;;5304738;28;20020;-68
2022/03/21 07:43:00;;;;;;;34.53;26.07;;;;;;;;;;5304420;28;20026;-68
2022/03/21 07:48:21;;;;;;;33.20;24.90;;;;;;;;;;5304931;28;20107;-67
2022/03/21 07:50:52;;;;;;;33.72;25.40;;;;;;;;;;5303893;28;20542;-67
2022/03/21 07:53:23;;;;;;;29.45;23.60;;;;;;;;;;5303820;28;20721;-68
2022/03/21 07:55:54;;;;;;;32.03;23.00;;;;;;;;;;5302890;28;20017;-68
2022/03/21 07:58:26;;;;;;;28.65;22.67;;;;;;;;;;5301586;28;20035;-68
2022/03/21 08:00:59;;;;;;;30.20;20.65;;;;;;;;;;5301794;28;20127;-68
2022/03/21 08:03:31;;;;;;;25.48;20.85;;;;;;;;;;5303320;28;20450;-68
2022/03/21 08:06:02;;;;;;;24.33;19.52;;;;;;;;;;5302146;28;20043;-68
2022/03/21 08:08:34;;;;;;;22.85;17.45;;;;;;;;;;5303403;28;20023;-68
2022/03/21 08:11:05;;;;;;;25.15;18.67;;;;;;;;;;5303502;28;20020;-68
2022/03/21 08:13:38;;;;;;;26.25;17.55;;;;;;;;;;5302218;28;20368;-68
2022/03/21 08:16:09;;;;;;;21.85;17.30;;;;;;;;;;5303392;28;20625;-67
2022/03/21 08:18:41;;;;;;;24.38;17.48;;;;;;;;;;5303569;28;20017;-67
2022/03/21 08:21:12;;;;;;;22.45;16.73;;;;;;;;;;5302453;28;20102;-68
2022/03/21 08:23:43;;;;;;;26.15;17.10;;;;;;;;;;5303081;28;20266;-68
2022/03/21 08:26:16;;;;;;;23.35;15.82;;;;;;;;;;5303111;28;20282;-67
2022/03/21 08:28:47;;;;;;;22.75;15.65;;;;;;;;;;5301846;28;20425;-68
2022/03/21 08:31:18;;;;;;;21.63;14.93;;;;;;;;;;5303601;28;20028;-68
2022/03/21 08:33:49;;;;;;;20.93;13.77;;;;;;;;;;5302928;28;20292;-69
2022/03/21 08:36:21;;;;;;;20.98;12.85;;;;;;;;;;5302949;28;20262;-70
2022/03/21 08:38:52;;;;;;;17.63;12.13;;;;;;;;;;5302914;28;20024;-69
2022/03/21 08:41:23;;;;;;;16.42;11.55;;;;;;;;;;5302622;28;20395;-69
2022/03/21 08:43:54;;;;;;;14.68;10.70;;;;;;;;;;5302737;28;20289;-69
2022/03/21 08:46:26;;;;;;;19.30;11.50;;;;;;;;;;5303737;28;20028;-69
2022/03/21 08:51:47;;;;;;;17.38;11.60;;;;;;;;;;5302768;28;20024;-69
2022/03/21 08:54:18;;;;;;;17.15;11.38;;;;;;;;;;5303291;28;20297;-68
2022/03/21 08:56:49;;;;;;;15.82;11.90;;;;;;;;;;5301805;28;20081;-69
2022/03/21 08:59:20;;;;;;;17.35;12.80;;;;;;;;;;5303423;28;20297;-69
2022/03/21 09:01:52;;;;;;;21.73;11.82;;;;;;;;;;5302620;28;20055;-69
2022/03/21 09:04:23;;;;;;;19.35;12.55;;;;;;;;;;5302274;28;20034;-69
2022/03/21 09:06:54;;;;;;;16.00;11.73;;;;;;;;;;5302357;28;20027;-69
2022/03/21 09:09:25;;;;;;;22.73;12.63;;;;;;;;;;5302125;28;20266;-68
2022/03/21 09:11:57;;;;;;;16.92;11.55;;;;;;;;;;5302542;28;20024;-68
2022/03/21 09:14:28;;;;;;;17.13;12.18;;;;;;;;;;5302902;28;20044;-69
2022/03/21 09:17:00;;;;;;;18.58;13.63;;;;;;;;;;5301645;28;20073;-68
2022/03/21 09:19:31;;;;;;;19.63;13.13;;;;;;;;;;5302274;28;20023;-68
2022/03/21 09:22:03;;;;;;;18.70;12.43;;;;;;;;;;5302819;28;20016;-68
2022/03/21 09:24:34;;;;;;;24.10;13.80;;;;;;;;;;5301610;28;20285;-69
2022/03/21 09:27:05;;;;;;;15.80;11.75;;;;;;;;;;5302662;28;20024;-69
2022/03/21 09:29:37;;;;;;;17.48;12.80;;;;;;;;;;5302517;28;20031;-69
2022/03/21 09:32:08;;;;;;;20.10;13.10;;;;;;;;;;5301745;28;20262;-69
2022/03/21 09:34:39;;;;;;;20.70;12.88;;;;;;;;;;5302373;28;20024;-69
2022/03/21 09:37:11;;;;;;;19.50;13.48;;;;;;;;;;5302407;28;20099;-69
2022/03/21 09:39:42;;;;;;;20.55;13.05;;;;;;;;;;5301504;28;20471;-68
2022/03/21 09:42:14;;;;;;;20.42;13.25;;;;;;;;;;5302259;28;20016;-69
2022/03/21 09:44:46;;;;;;;18.63;11.45;;;;;;;;;;5300954;28;20028;-69
2022/03/21 09:50:11;;;;;;;17.67;10.88;;;;;;;;;;5302372;28;20020;-68
2022/03/21 09:52:42;;;;;;;16.08;10.85;;;;;;;;;;5301204;28;20024;-68
2022/03/21 09:55:14;;;;;;;17.23;10.77;;;;;;;;;;5302271;28;20485;-68
2022/03/21 09:57:45;;;;;;;14.68;10.85;;;;;;;;;;5301928;28;20109;-69
2022/03/21 10:00:16;;;;;;;17.77;10.80;;;;;;;;;;5301672;28;20078;-68
2022/03/21 10:02:48;;;;;;;17.50;11.40;;;;;;;;;;5301728;28;20016;-69
2022/03/21 10:05:39;;;;;;;20.08;11.40;;;;;;;;;;5302029;28;20036;-69
2022/03/21 10:08:11;;;;;;;16.02;11.07;;;;;;;;;;5302202;28;20047;-68
2022/03/21 10:10:50;;;;;;;17.33;11.50;;;;;;;;;;5301933;28;20039;-68
2022/03/21 10:13:23;;;;;;;19.17;11.93;;;;;;;;;;5301341;28;20039;-68
2022/03/21 10:16:06;;;;;;;16.15;12.35;;;;;;;;;;5301613;28;20073;-69
2022/03/21 10:18:38;;;;;;;20.45;12.70;;;;;;;;;;5304319;28;20016;-68
2022/03/21 10:21:11;;;;;;;19.73;13.05;;;;;;;;;;5304958;28;20590;-68
2022/03/21 10:23:44;;;;;;;19.17;11.60;;;;;;;;;;5304918;28;20034;-68
2022/03/21 10:26:26;;;;;;;18.85;12.38;;;;;;;;;;5306084;28;20125;-68
2022/03/21 10:28:59;;;;;;;17.23;12.88;;;;;;;;;;5304954;28;20022;-70
2022/03/21 10:31:37;;;;;;;24.13;13.52;;;;;;;;;;5305934;28;20106;-68
2022/03/21 10:34:09;;;;;;;19.90;13.23;;;;;;;;;;5305133;28;20016;-69
2022/03/21 10:36:59;;;;;;;13.45;11.90;;;;;;;;;;5305736;28;20020;-68
2022/03/21 10:39:32;;;;;;;24.60;13.45;;;;;;;;;;5305962;28;20103;-69
2022/03/21 10:42:05;;;;;;;22.98;13.88;;;;;;;;;;5305070;28;20484;-70
2022/03/21 10:44:37;;;;;;;19.85;12.95;;;;;;;;;;5305544;28;20442;-69
2022/03/21 10:47:09;;;;;;;22.67;13.52;;;;;;;;;;5305379;28;20079;-70
2022/03/21 10:49:42;;;;;;;20.42;12.77;;;;;;;;;;5304872;28;20422;-69
2022/03/21 10:52:17;;;;;;;20.88;14.15;;;;;;;;;;5305315;28;20375;-69
2022/03/21 10:54:50;;;;;;;23.55;15.20;;;;;;;;;;5304561;28;20077;-69
2022/03/21 10:57:26;;;;;;;20.48;14.02;;;;;;;;;;5305474;28;20023;-69
2022/03/21 11:00:17;;;;;;;19.83;13.77;;;;;;;;;;5305180;28;20095;-69
2022/03/21 11:02:53;;;;;;;22.00;14.35;;;;;;;;;;5304366;28;20095;-69
2022/03/21 11:05:25;;;;;;;19.73;14.52;;;;;;;;;;5304903;28;20116;-70
2022/03/21 11:07:57;;;;;;;22.20;14.25;;;;;;;;;;5304849;28;20028;-69
2022/03/21 11:10:28;;;;;;;20.95;13.82;;;;;;;;;;5304841;28;20028;-69
2022/03/21 11:13:03;;;;;;;20.30;14.70;;;;;;;;;;5304791;28;20178;-69
2022/03/21 11:15:35;;;;;;;23.35;15.55;;;;;;;;;;5305117;28;20016;-69
2022/03/21 11:18:08;;;;;;;20.02;13.95;;;;;;;;;;5304250;28;20077;-69
2022/03/21 11:20:40;;;;;;;24.88;14.70;;;;;;;;;;5304856;28;20019;-69
2022/03/21 11:23:12;;;;;;;19.45;13.40;;;;;;;;;;5303825;28;20020;-69
2022/03/21 11:25:45;;;;;;;19.50;12.93;;;;;;;;;;5304904;28;20383;-70
2022/03/21 11:28:19;;;;;;;25.80;15.05;;;;;;;;;;5304933;28;20015;-70
2022/03/21 11:30:56;;;;;;;20.38;13.95;;;;;;;;;;5302590;28;20020;-69
2022/03/21 11:33:34;;;;;;;19.02;14.02;;;;;;;;;;5305207;28;20112;-68
2022/03/21 11:36:07;;;;;;;21.38;14.75;;;;;;;;;;5304844;28;20023;-69
2022/03/21 11:38:45;;;;;;;26.65;14.30;;;;;;;;;;5303875;28;20519;-70
2022/03/21 11:41:16;;;;;;;26.38;14.88;;;;;;;;;;5304694;28;20031;-69
2022/03/21 11:44:06;;;;;;;22.17;14.13;;;;;;;;;;5304387;28;20016;-68
2022/03/21 11:46:37;;;;;;;24.45;14.63;;;;;;;;;;5304327;28;20569;-69
2022/03/21 11:49:17;;;;;;;20.70;13.60;;;;;;;;;;5304514;28;20095;-69
2022/03/21 11:51:55;;;;;;;23.70;14.05;;;;;;;;;;5302485;28;20019;-67
2022/03/21 11:54:30;;;;;;;26.80;16.35;;;;;;;;;;5301732;28;20065;-70
2022/03/21 11:57:01;;;;;;;26.60;14.60;;;;;;;;;;5303417;28;20008;-70
2022/03/21 11:59:33;;;;;;;21.70;14.40;;;;;;;;;;5301866;28;20020;-70
2022/03/21 12:02:10;;;;;;;16.98;11.40;;;;;;;;;;5303472;28;20632;-71
2022/03/21 12:04:41;;;;;;;20.50;12.43;;;;;;;;;;5304166;28;20440;-70
2022/03/21 12:07:13;;;;;;;20.77;11.73;;;;;;;;;;5302549;28;20119;-71
2022/03/21 12:09:54;;;;;;;24.30;11.52;;;;;;;;;;5303118;28;20038;-70
2022/03/21 12:12:40;;;;;;;22.20;11.45;;;;;;;;;;5303247;28;20989;-70
2022/03/21 12:15:15;;;;;;;19.63;10.82;;;;;;;;;;5303079;28;20429;-70
2022/03/21 12:17:47;;;;;;;15.90;10.80;;;;;;;;;;5303112;28;20674;-70
2022/03/21 12:20:19;;;;;;;20.38;10.80;;;;;;;;;;5302894;28;20031;-70
2022/03/21 12:22:51;;;;;;;20.35;10.35;;;;;;;;;;5303396;28;20095;-70
2022/03/21 12:25:28;;;;;;;19.63;11.00;;;;;;;;;;5304049;28;20063;-70
2022/03/21 12:28:17;;;;;;;18.63;11.60;;;;;;;;;;5302848;28;20020;-70
2022/03/21 12:30:48;;;;;;;19.50;11.05;;;;;;;;;;5303247;28;20028;-71
2022/03/21 12:33:24;;;;;;;16.77;9.90;;;;;;;;;;5302885;28;20073;-69
2022/03/21 12:35:56;;;;;;;15.32;9.82;;;;;;;;;;5303254;28;20023;-70
2022/03/21 12:38:34;;;;;;;15.55;9.10;;;;;;;;;;5303695;28;20016;-69
2022/03/21 12:41:08;;;;;;;16.92;10.00;;;;;;;;;;5301844;28;20034;-69
2022/03/21 12:43:43;;;;;;;21.10;10.52;;;;;;;;;;5303362;28;20393;-70
2022/03/21 12:46:21;;;;;;;19.13;10.93;;;;;;;;;;5302954;28;20085;-69
2022/03/21 12:48:58;;;;;;;16.17;10.20;;;;;;;;;;5302127;28;20032;-69
2022/03/21 12:51:34;;;;;;;23.15;10.32;;;;;;;;;;5302973;28;20028;-70
2022/03/21 12:54:06;;;;;;;17.90;11.25;;;;;;;;;;5302736;28;20016;-70
2022/03/21 12:56:37;;;;;;;22.50;12.48;;;;;;;;;;5302522;28;20020;-70
2022/03/21 12:59:09;;;;;;;17.90;13.15;;;;;;;;;;5302981;28;20093;-70
2022/03/21 13:01:42;;;;;;;20.10;12.85;;;;;;;;;;5302210;28;20089;-70
2022/03/21 13:12:56;;;;;;;16.17;11.55;;;;;;;;;;5302557;28;20024;-70
2022/03/21 13:15:28;;;;;;;17.85;10.75;;;;;;;;;;5302380;28;20034;-70
2022/03/21 13:18:03;;;;;;;18.90;11.95;;;;;;;;;;5302492;28;20016;-70
2022/03/21 13:20:38;;;;;;;18.15;11.70;;;;;;;;;;5302625;28;20085;-70
2022/03/21 13:23:11;;;;;;;21.73;11.75;;;;;;;;;;5301620;28;20027;-70
2022/03/21 13:25:43;;;;;;;22.75;11.43;;;;;;;;;;5302633;28;20443;-71
2022/03/21 13:28:15;;;;;;;23.33;11.20;;;;;;;;;;5302507;28;20031;-69
2022/03/21 13:30:52;;;;;;;18.13;10.93;;;;;;;;;;5301196;28;20410;-71
2022/03/21 13:33:26;;;;;;;19.60;11.57;;;;;;;;;;5302669;28;20379;-70
2022/03/21 13:35:58;;;;;;;21.42;12.98;;;;;;;;;;5302007;28;20377;-70
2022/03/21 13:38:31;;;;;;;20.02;11.75;;;;;;;;;;5301605;28;20455;-70
2022/03/21 13:41:10;;;;;;;19.58;12.30;;;;;;;;;;5302396;28;20016;-70
2022/03/21 13:43:43;;;;;;;17.83;11.73;;;;;;;;;;5301465;28;20454;-69
2022/03/21 13:46:21;;;;;;;26.00;11.82;;;;;;;;;;5302062;28;20048;-69
2022/03/21 13:48:52;;;;;;;22.52;11.27;;;;;;;;;;5301505;28;20020;-68
2022/03/21 13:51:24;;;;;;;19.40;11.45;;;;;;;;;;5301653;28;20024;-69
2022/03/21 13:54:10;;;;;;;21.15;12.18;;;;;;;;;;5300849;28;20099;-69
2022/03/21 13:56:41;;;;;;;15.38;10.77;;;;;;;;;;5302068;28;20016;-69
2022/03/21 13:59:15;;;;;;;17.73;10.50;;;;;;;;;;5301404;28;20402;-69
2022/03/21 14:01:47;;;;;;;19.58;9.82;;;;;;;;;;5301830;28;20262;-68
2022/03/21 14:04:19;;;;;;;17.50;8.60;;;;;;;;;;5302356;28;20102;-69
2022/03/21 14:07:01;;;;;;;15.60;7.97;;;;;;;;;;5300900;28;20027;-69
2022/03/21 14:09:32;;;;;;;12.80;7.05;;;;;;;;;;5302199;28;20027;-69
2022/03/21 14:12:08;;;;;;;17.67;7.55;;;;;;;;;;5300958;28;20034;-68
2022/03/21 14:14:39;;;;;;;17.55;8.45;;;;;;;;;;5301729;28;20063;-68
2022/03/21 14:17:11;;;;;;;15.55;8.73;;;;;;;;;;5301858;28;20463;-68
2022/03/21 14:19:45;;;;;;;23.90;8.45;;;;;;;;;;5300752;28;20025;-68
2022/03/21 14:22:16;;;;;;;14.23;7.18;;;;;;;;;;5301967;28;20032;-68
2022/03/21 14:24:48;;;;;;;13.25;7.25;;;;;;;;;;5301306;28;20386;-69
2022/03/21 14:27:19;;;;;;;17.02;7.78;;;;;;;;;;5301265;28;20016;-68
2022/03/21 14:29:50;;;;;;;18.55;9.25;;;;;;;;;;5301373;28;20564;-68
2022/03/21 14:32:22;;;;;;;15.18;8.90;;;;;;;;;;5302270;28;20016;-69
2022/03/21 14:34:53;;;;;;;14.38;9.02;;;;;;;;;;5296888;28;20023;-68
2022/03/21 14:37:25;;;;;;;17.33;10.00;;;;;;;;;;5301368;28;20095;-69
2022/03/21 14:39:56;;;;;;;17.33;9.15;;;;;;;;;;5300415;28;20016;-69
2022/03/21 14:42:27;;;;;;;18.13;9.55;;;;;;;;;;5301695;28;20271;-68
2022/03/21 14:44:58;;;;;;;17.55;9.60;;;;;;;;;;5301358;28;20027;-68
2022/03/21 14:47:29;;;;;;;16.50;9.15;;;;;;;;;;5300697;28;20177;-69
2022/03/21 14:50:00;;;;;;;17.43;9.80;;;;;;;;;;5301619;28;20012;-69
2022/03/21 14:52:31;;;;;;;15.60;9.90;;;;;;;;;;5301587;28;20335;-69
2022/03/21 14:55:03;;;;;;;15.98;9.93;;;;;;;;;;5300736;28;20280;-69
2022/03/21 14:57:34;;;;;;;16.20;10.55;;;;;;;;;;5301619;28;20031;-69
2022/03/21 15:00:06;;;;;;;14.53;9.00;;;;;;;;;;5301609;28;20022;-68
2022/03/21 15:02:37;;;;;;;18.92;9.82;;;;;;;;;;5300612;28;20266;-69
2022/03/21 15:05:09;;;;;;;16.52;9.30;;;;;;;;;;5300668;28;20073;-69
2022/03/21 15:07:40;;;;;;;18.83;8.95;;;;;;;;;;5312551;28;20032;-69
2022/03/21 15:10:20;;;;;;;17.23;8.77;;;;;;;;;;5305811;27;20030;-69
2022/03/21 15:12:53;;;;;;;14.55;7.47;;;;;;;;;;5345924;27;20280;-68
2022/03/21 15:15:25;;;;;;;14.80;7.53;;;;;;;;;;5346139;27;20022;-68
2022/03/21 15:17:56;;;;;;;16.70;8.27;;;;;;;;;;5346422;27;20079;-69
2022/03/21 15:20:28;;;;;;;16.42;7.95;;;;;;;;;;5347295;27;20039;-68
2022/03/21 15:22:59;;;;;;;17.52;8.50;;;;;;;;;;5345691;27;20030;-69